MMZO/ZLO METAR and TAF weather

Enter ICAO airport designator
Station Type Date Time Source
MMZO METAR 2022/08/16 17:43 UTC NOAA

MMZO 161743Z 15008KT 10SM FEW020 SCT200 29/24 A2988 RMK SLP071 8/106


Station Type Date Time Source
MMZO Decoded METAR 2022/08/16 17:43 UTC NOAA

Manzanillo International , Mexico (MMZO) 19-09N 104-34W
Aug 16, 2022 - 01:43 PM EDT / 2022.08.16 1743 UTC
Wind: from the SSE (150 degrees) at 9 MPH (8 KT):0
Visibility: 10 mile(s):0
Sky conditions: partly cloudy
Temperature: 84 F (29 C)
Dew Point: 75 F (24 C)
Relative Humidity: 74%
Pressure (altimeter): 29.88 in. Hg (1011 hPa)
ob: MMZO 161743Z 15008KT 10SM FEW020 SCT200 29/24 A2988 RMK SLP071 8/106
cycle: 17

Station Type Date Time Source
MMZO TAF 2022/08/16 18:38 UTC NOAA

TAF MMZO 161631Z 1618/1718 20010KT P6SM SCT020 BKN090 BKN250
FM170600 00000KT P6SM BKN020 BKN080
TEMPO 1709/1713 4SM TSRA BKN020CB
FM171700 23010KT P6SM BKN020 BKN250

Example: see airport list